sensor_id;sensor_type;location;lat;lon;timestamp;P1;durP1;ratioP1;P2;durP2;ratioP2
21297;SDS011;10808;48.010;11.326;2024-01-15T00:01:43;6.47;;;4.40;;
21297;SDS011;10808;48.010;11.326;2024-01-15T00:04:09;7.25;;;4.60;;
21297;SDS011;10808;48.010;11.326;2024-01-15T00:06:36;6.68;;;4.25;;
21297;SDS011;10808;48.010;11.326;2024-01-15T00:09:02;6.73;;;4.37;;
21297;SDS011;10808;48.010;11.326;2024-01-15T00:11:28;8.10;;;4.40;;
21297;SDS011;10808;48.010;11.326;2024-01-15T00:13:54;7.93;;;4.63;;
21297;SDS011;10808;48.010;11.326;2024-01-15T00:16:20;7.80;;;4.50;;
21297;SDS011;10808;48.010;11.326;2024-01-15T00:18:46;6.78;;;4.60;;
21297;SDS011;10808;48.010;11.326;2024-01-15T00:21:12;6.80;;;4.40;;
21297;SDS011;10808;48.010;11.326;2024-01-15T00:23:42;9.38;;;5.10;;
21297;SDS011;10808;48.010;11.326;2024-01-15T00:26:09;9.82;;;4.85;;
21297;SDS011;10808;48.010;11.326;2024-01-15T00:28:36;7.80;;;5.00;;
21297;SDS011;10808;48.010;11.326;2024-01-15T00:31:03;8.65;;;5.00;;
21297;SDS011;10808;48.010;11.326;2024-01-15T00:33:30;8.27;;;5.10;;
21297;SDS011;10808;48.010;11.326;2024-01-15T00:35:56;8.77;;;5.20;;
21297;SDS011;10808;48.010;11.326;2024-01-15T00:38:23;8.18;;;5.43;;
21297;SDS011;10808;48.010;11.326;2024-01-15T00:40:49;8.25;;;5.20;;
21297;SDS011;10808;48.010;11.326;2024-01-15T00:43:15;11.30;;;5.88;;
21297;SDS011;10808;48.010;11.326;2024-01-15T00:45:43;8.85;;;5.32;;
21297;SDS011;10808;48.010;11.326;2024-01-15T00:48:09;8.52;;;5.32;;
21297;SDS011;10808;48.010;11.326;2024-01-15T00:50:35;8.98;;;5.65;;
21297;SDS011;10808;48.010;11.326;2024-01-15T00:53:02;8.15;;;5.07;;
21297;SDS011;10808;48.010;11.326;2024-01-15T00:55:28;8.88;;;5.50;;
21297;SDS011;10808;48.010;11.326;2024-01-15T00:57:55;8.52;;;5.40;;
21297;SDS011;10808;48.010;11.326;2024-01-15T01:00:21;9.70;;;5.60;;
21297;SDS011;10808;48.010;11.326;2024-01-15T01:02:47;8.85;;;5.40;;
21297;SDS011;10808;48.010;11.326;2024-01-15T01:05:13;10.50;;;5.77;;
21297;SDS011;10808;48.010;11.326;2024-01-15T01:07:39;9.77;;;5.68;;
21297;SDS011;10808;48.010;11.326;2024-01-15T01:10:05;10.63;;;6.00;;
21297;SDS011;10808;48.010;11.326;2024-01-15T01:12:32;10.68;;;6.25;;
21297;SDS011;10808;48.010;11.326;2024-01-15T01:14:59;11.45;;;6.85;;
21297;SDS011;10808;48.010;11.326;2024-01-15T01:17:25;11.77;;;6.50;;
21297;SDS011;10808;48.010;11.326;2024-01-15T01:19:51;13.90;;;7.67;;
21297;SDS011;10808;48.010;11.326;2024-01-15T01:22:17;13.07;;;7.43;;
21297;SDS011;10808;48.010;11.326;2024-01-15T01:24:46;12.88;;;7.55;;
21297;SDS011;10808;48.010;11.326;2024-01-15T01:27:12;15.20;;;8.70;;
21297;SDS011;10808;48.010;11.326;2024-01-15T01:29:38;16.60;;;8.98;;
21297;SDS011;10808;48.010;11.326;2024-01-15T01:32:04;15.52;;;9.25;;
21297;SDS011;10808;48.010;11.326;2024-01-15T01:34:32;19.02;;;9.57;;
21297;SDS011;10808;48.010;11.326;2024-01-15T01:37:01;17.63;;;10.25;;
21297;SDS011;10808;48.010;11.326;2024-01-15T01:39:27;19.48;;;9.98;;
21297;SDS011;10808;48.010;11.326;2024-01-15T01:41:53;16.60;;;10.00;;
21297;SDS011;10808;48.010;11.326;2024-01-15T01:44:19;17.92;;;10.30;;
21297;SDS011;10808;48.010;11.326;2024-01-15T01:46:46;20.13;;;10.57;;
21297;SDS011;10808;48.010;11.326;2024-01-15T01:49:12;20.50;;;11.37;;
21297;SDS011;10808;48.010;11.326;2024-01-15T01:51:39;20.33;;;11.45;;
21297;SDS011;10808;48.010;11.326;2024-01-15T01:54:05;19.70;;;11.35;;
21297;SDS011;10808;48.010;11.326;2024-01-15T01:56:33;20.42;;;11.63;;
21297;SDS011;10808;48.010;11.326;2024-01-15T01:59:00;23.05;;;12.52;;
21297;SDS011;10808;48.010;11.326;2024-01-15T02:01:27;20.37;;;11.97;;
21297;SDS011;10808;48.010;11.326;2024-01-15T02:03:53;20.05;;;11.55;;
21297;SDS011;10808;48.010;11.326;2024-01-15T02:06:23;22.52;;;12.15;;
21297;SDS011;10808;48.010;11.326;2024-01-15T02:08:49;22.83;;;12.15;;
21297;SDS011;10808;48.010;11.326;2024-01-15T02:11:16;20.38;;;11.57;;
21297;SDS011;10808;48.010;11.326;2024-01-15T02:13:42;21.17;;;12.02;;
21297;SDS011;10808;48.010;11.326;2024-01-15T02:16:08;22.15;;;12.48;;
21297;SDS011;10808;48.010;11.326;2024-01-15T02:18:40;22.70;;;12.35;;
21297;SDS011;10808;48.010;11.326;2024-01-15T02:21:07;23.17;;;12.90;;
21297;SDS011;10808;48.010;11.326;2024-01-15T02:23:33;22.10;;;12.23;;
21297;SDS011;10808;48.010;11.326;2024-01-15T02:26:00;19.40;;;11.82;;
21297;SDS011;10808;48.010;11.326;2024-01-15T02:28:26;19.10;;;11.27;;
21297;SDS011;10808;48.010;11.326;2024-01-15T02:30:52;20.77;;;11.27;;
21297;SDS011;10808;48.010;11.326;2024-01-15T02:33:18;19.80;;;10.90;;
21297;SDS011;10808;48.010;11.326;2024-01-15T02:35:44;18.52;;;10.50;;
21297;SDS011;10808;48.010;11.326;2024-01-15T02:38:12;18.83;;;10.60;;
21297;SDS011;10808;48.010;11.326;2024-01-15T02:40:38;19.15;;;10.27;;
21297;SDS011;10808;48.010;11.326;2024-01-15T02:43:04;16.42;;;9.43;;
21297;SDS011;10808;48.010;11.326;2024-01-15T02:45:30;16.73;;;9.50;;
21297;SDS011;10808;48.010;11.326;2024-01-15T02:47:56;17.38;;;9.82;;
21297;SDS011;10808;48.010;11.326;2024-01-15T02:50:22;16.20;;;9.48;;
21297;SDS011;10808;48.010;11.326;2024-01-15T02:52:48;17.65;;;9.98;;
21297;SDS011;10808;48.010;11.326;2024-01-15T02:55:14;16.67;;;9.27;;
21297;SDS011;10808;48.010;11.326;2024-01-15T02:57:40;15.27;;;8.60;;
21297;SDS011;10808;48.010;11.326;2024-01-15T03:00:06;15.30;;;9.27;;
21297;SDS011;10808;48.010;11.326;2024-01-15T03:02:35;16.52;;;9.05;;
21297;SDS011;10808;48.010;11.326;2024-01-15T03:05:02;15.65;;;9.35;;
21297;SDS011;10808;48.010;11.326;2024-01-15T03:07:29;15.93;;;9.18;;
21297;SDS011;10808;48.010;11.326;2024-01-15T03:09:55;15.90;;;8.98;;
21297;SDS011;10808;48.010;11.326;2024-01-15T03:12:21;16.50;;;9.07;;
21297;SDS011;10808;48.010;11.326;2024-01-15T03:14:47;14.98;;;8.70;;
21297;SDS011;10808;48.010;11.326;2024-01-15T03:17:14;15.35;;;8.32;;
21297;SDS011;10808;48.010;11.326;2024-01-15T03:19:40;16.50;;;8.87;;
21297;SDS011;10808;48.010;11.326;2024-01-15T03:22:06;15.77;;;8.30;;
21297;SDS011;10808;48.010;11.326;2024-01-15T03:24:34;15.33;;;8.40;;
21297;SDS011;10808;48.010;11.326;2024-01-15T03:27:06;14.45;;;8.38;;
21297;SDS011;10808;48.010;11.326;2024-01-15T03:29:32;12.18;;;7.35;;
21297;SDS011;10808;48.010;11.326;2024-01-15T03:31:59;12.77;;;7.73;;
21297;SDS011;10808;48.010;11.326;2024-01-15T03:34:25;13.73;;;7.68;;
21297;SDS011;10808;48.010;11.326;2024-01-15T03:36:51;16.40;;;8.25;;
21297;SDS011;10808;48.010;11.326;2024-01-15T03:39:17;14.80;;;8.02;;
21297;SDS011;10808;48.010;11.326;2024-01-15T03:41:43;13.60;;;8.10;;
21297;SDS011;10808;48.010;11.326;2024-01-15T03:44:09;15.43;;;8.40;;
21297;SDS011;10808;48.010;11.326;2024-01-15T03:46:35;14.10;;;8.15;;
21297;SDS011;10808;48.010;11.326;2024-01-15T03:49:01;12.23;;;7.37;;
21297;SDS011;10808;48.010;11.326;2024-01-15T03:51:27;13.43;;;7.57;;
21297;SDS011;10808;48.010;11.326;2024-01-15T03:53:53;12.50;;;7.20;;
21297;SDS011;10808;48.010;11.326;2024-01-15T03:56:19;11.95;;;7.45;;
21297;SDS011;10808;48.010;11.326;2024-01-15T03:58:45;12.30;;;7.07;;
21297;SDS011;10808;48.010;11.326;2024-01-15T04:01:11;12.32;;;7.05;;
21297;SDS011;10808;48.010;11.326;2024-01-15T04:03:37;10.40;;;6.85;;
21297;SDS011;10808;48.010;11.326;2024-01-15T04:06:06;13.30;;;6.70;;
21297;SDS011;10808;48.010;11.326;2024-01-15T04:08:32;11.43;;;6.53;;
21297;SDS011;10808;48.010;11.326;2024-01-15T04:10:58;10.10;;;6.18;;
21297;SDS011;10808;48.010;11.326;2024-01-15T04:13:24;10.90;;;6.25;;
21297;SDS011;10808;48.010;11.326;2024-01-15T04:15:50;10.50;;;6.05;;
21297;SDS011;10808;48.010;11.326;2024-01-15T04:18:16;10.35;;;5.90;;
21297;SDS011;10808;48.010;11.326;2024-01-15T04:20:43;8.90;;;5.85;;
21297;SDS011;10808;48.010;11.326;2024-01-15T04:23:09;9.40;;;5.90;;
21297;SDS011;10808;48.010;11.326;2024-01-15T04:25:35;10.95;;;6.20;;
21297;SDS011;10808;48.010;11.326;2024-01-15T04:28:01;10.40;;;6.15;;
21297;SDS011;10808;48.010;11.326;2024-01-15T04:30:27;12.05;;;6.05;;
21297;SDS011;10808;48.010;11.326;2024-01-15T04:32:53;10.05;;;5.65;;
21297;SDS011;10808;48.010;11.326;2024-01-15T04:35:19;9.85;;;6.15;;
21297;SDS011;10808;48.010;11.326;2024-01-15T04:37:45;9.35;;;5.75;;
21297;SDS011;10808;48.010;11.326;2024-01-15T04:40:12;10.03;;;5.90;;
21297;SDS011;10808;48.010;11.326;2024-01-15T04:42:38;11.10;;;6.35;;
21297;SDS011;10808;48.010;11.326;2024-01-15T04:45:04;11.53;;;6.40;;
21297;SDS011;10808;48.010;11.326;2024-01-15T04:47:30;11.05;;;5.90;;
21297;SDS011;10808;48.010;11.326;2024-01-15T04:49:56;11.35;;;6.60;;
21297;SDS011;10808;48.010;11.326;2024-01-15T04:52:22;12.82;;;6.95;;
21297;SDS011;10808;48.010;11.326;2024-01-15T04:54:49;10.85;;;6.28;;
21297;SDS011;10808;48.010;11.326;2024-01-15T04:57:15;10.70;;;6.00;;
21297;SDS011;10808;48.010;11.326;2024-01-15T05:02:35;11.38;;;6.72;;
21297;SDS011;10808;48.010;11.326;2024-01-15T05:05:01;11.57;;;6.73;;
21297;SDS011;10808;48.010;11.326;2024-01-15T05:07:27;11.27;;;6.32;;
21297;SDS011;10808;48.010;11.326;2024-01-15T05:09:53;10.45;;;5.82;;
21297;SDS011;10808;48.010;11.326;2024-01-15T05:12:19;10.77;;;6.10;;
21297;SDS011;10808;48.010;11.326;2024-01-15T05:14:47;10.32;;;5.68;;
21297;SDS011;10808;48.010;11.326;2024-01-15T05:17:13;9.05;;;5.55;;
21297;SDS011;10808;48.010;11.326;2024-01-15T05:19:39;9.40;;;5.53;;
21297;SDS011;10808;48.010;11.326;2024-01-15T05:22:06;9.63;;;5.60;;
21297;SDS011;10808;48.010;11.326;2024-01-15T05:24:32;10.05;;;5.50;;
21297;SDS011;10808;48.010;11.326;2024-01-15T05:26:58;8.38;;;5.13;;
21297;SDS011;10808;48.010;11.326;2024-01-15T05:29:24;9.75;;;5.60;;
21297;SDS011;10808;48.010;11.326;2024-01-15T05:31:50;9.30;;;5.75;;
21297;SDS011;10808;48.010;11.326;2024-01-15T05:34:16;11.93;;;6.40;;
21297;SDS011;10808;48.010;11.326;2024-01-15T05:36:44;11.73;;;6.68;;
21297;SDS011;10808;48.010;11.326;2024-01-15T05:39:13;10.30;;;6.15;;
21297;SDS011;10808;48.010;11.326;2024-01-15T05:41:39;13.00;;;6.55;;
21297;SDS011;10808;48.010;11.326;2024-01-15T05:44:05;11.32;;;7.18;;
21297;SDS011;10808;48.010;11.326;2024-01-15T05:46:31;10.55;;;6.38;;
21297;SDS011;10808;48.010;11.326;2024-01-15T05:48:57;11.70;;;6.82;;
21297;SDS011;10808;48.010;11.326;2024-01-15T05:51:23;13.05;;;7.20;;
21297;SDS011;10808;48.010;11.326;2024-01-15T05:53:49;11.68;;;6.65;;
21297;SDS011;10808;48.010;11.326;2024-01-15T05:56:15;10.57;;;6.18;;
21297;SDS011;10808;48.010;11.326;2024-01-15T05:58:41;10.82;;;6.35;;
21297;SDS011;10808;48.010;11.326;2024-01-15T06:01:07;11.07;;;6.72;;
21297;SDS011;10808;48.010;11.326;2024-01-15T06:03:33;11.25;;;6.47;;
21297;SDS011;10808;48.010;11.326;2024-01-15T06:05:59;11.88;;;6.60;;
21297;SDS011;10808;48.010;11.326;2024-01-15T06:08:25;13.30;;;7.63;;
21297;SDS011;10808;48.010;11.326;2024-01-15T06:10:53;13.57;;;7.03;;
21297;SDS011;10808;48.010;11.326;2024-01-15T06:13:22;11.68;;;6.70;;
21297;SDS011;10808;48.010;11.326;2024-01-15T06:15:48;11.18;;;7.13;;
21297;SDS011;10808;48.010;11.326;2024-01-15T06:18:14;12.60;;;7.28;;
21297;SDS011;10808;48.010;11.326;2024-01-15T06:20:40;12.05;;;7.18;;
21297;SDS011;10808;48.010;11.326;2024-01-15T06:23:06;13.40;;;7.90;;
21297;SDS011;10808;48.010;11.326;2024-01-15T06:25:32;12.43;;;7.20;;
21297;SDS011;10808;48.010;11.326;2024-01-15T06:27:58;11.17;;;7.20;;
21297;SDS011;10808;48.010;11.326;2024-01-15T06:30:25;13.63;;;7.85;;
21297;SDS011;10808;48.010;11.326;2024-01-15T06:32:51;12.13;;;7.10;;
21297;SDS011;10808;48.010;11.326;2024-01-15T06:35:17;11.27;;;6.78;;
21297;SDS011;10808;48.010;11.326;2024-01-15T06:37:43;11.25;;;6.57;;
21297;SDS011;10808;48.010;11.326;2024-01-15T06:40:09;11.82;;;7.05;;
21297;SDS011;10808;48.010;11.326;2024-01-15T06:42:35;11.20;;;6.85;;
21297;SDS011;10808;48.010;11.326;2024-01-15T06:45:01;12.05;;;6.95;;
21297;SDS011;10808;48.010;11.326;2024-01-15T06:47:27;13.63;;;7.07;;
21297;SDS011;10808;48.010;11.326;2024-01-15T06:49:53;11.00;;;6.60;;
21297;SDS011;10808;48.010;11.326;2024-01-15T06:52:20;11.85;;;7.05;;
21297;SDS011;10808;48.010;11.326;2024-01-15T06:54:46;11.82;;;6.63;;
21297;SDS011;10808;48.010;11.326;2024-01-15T06:57:13;11.85;;;6.93;;
21297;SDS011;10808;48.010;11.326;2024-01-15T06:59:39;11.77;;;6.90;;
21297;SDS011;10808;48.010;11.326;2024-01-15T07:02:05;13.02;;;7.25;;
21297;SDS011;10808;48.010;11.326;2024-01-15T07:04:31;11.68;;;7.00;;
21297;SDS011;10808;48.010;11.326;2024-01-15T07:06:57;12.65;;;7.47;;
21297;SDS011;10808;48.010;11.326;2024-01-15T07:09:23;14.48;;;8.20;;
21297;SDS011;10808;48.010;11.326;2024-01-15T07:11:49;13.40;;;7.63;;
21297;SDS011;10808;48.010;11.326;2024-01-15T07:14:15;11.48;;;6.47;;
21297;SDS011;10808;48.010;11.326;2024-01-15T07:16:41;10.45;;;5.88;;
21297;SDS011;10808;48.010;11.326;2024-01-15T07:19:07;11.20;;;6.43;;
21297;SDS011;10808;48.010;11.326;2024-01-15T07:21:33;9.60;;;5.88;;
21297;SDS011;10808;48.010;11.326;2024-01-15T07:23:59;10.73;;;6.22;;
21297;SDS011;10808;48.010;11.326;2024-01-15T07:26:25;13.70;;;7.67;;
21297;SDS011;10808;48.010;11.326;2024-01-15T07:28:51;10.73;;;6.45;;
21297;SDS011;10808;48.010;11.326;2024-01-15T07:31:17;10.18;;;6.35;;
21297;SDS011;10808;48.010;11.326;2024-01-15T07:33:43;9.73;;;6.00;;
21297;SDS011;10808;48.010;11.326;2024-01-15T07:36:09;10.13;;;5.90;;
21297;SDS011;10808;48.010;11.326;2024-01-15T07:38:35;11.32;;;6.95;;
21297;SDS011;10808;48.010;11.326;2024-01-15T07:41:02;12.23;;;6.82;;
21297;SDS011;10808;48.010;11.326;2024-01-15T07:43:29;12.50;;;7.00;;
21297;SDS011;10808;48.010;11.326;2024-01-15T07:45:55;9.63;;;5.50;;
21297;SDS011;10808;48.010;11.326;2024-01-15T07:48:21;10.18;;;5.78;;
21297;SDS011;10808;48.010;11.326;2024-01-15T07:50:47;10.73;;;6.20;;
21297;SDS011;10808;48.010;11.326;2024-01-15T07:53:13;9.50;;;6.00;;
21297;SDS011;10808;48.010;11.326;2024-01-15T07:55:39;10.20;;;6.15;;
21297;SDS011;10808;48.010;11.326;2024-01-15T07:58:05;9.70;;;6.10;;
21297;SDS011;10808;48.010;11.326;2024-01-15T08:00:31;9.75;;;6.13;;
21297;SDS011;10808;48.010;11.326;2024-01-15T08:02:59;8.95;;;5.95;;
21297;SDS011;10808;48.010;11.326;2024-01-15T08:05:25;11.05;;;6.43;;
21297;SDS011;10808;48.010;11.326;2024-01-15T08:07:51;9.98;;;6.45;;
21297;SDS011;10808;48.010;11.326;2024-01-15T08:10:17;10.43;;;6.20;;
21297;SDS011;10808;48.010;11.326;2024-01-15T08:12:43;9.00;;;6.00;;
21297;SDS011;10808;48.010;11.326;2024-01-15T08:15:09;10.38;;;6.35;;
21297;SDS011;10808;48.010;11.326;2024-01-15T08:17:35;11.73;;;6.88;;
21297;SDS011;10808;48.010;11.326;2024-01-15T08:20:01;11.37;;;7.10;;
21297;SDS011;10808;48.010;11.326;2024-01-15T08:22:28;12.27;;;6.88;;
21297;SDS011;10808;48.010;11.326;2024-01-15T08:24:54;12.20;;;7.28;;
21297;SDS011;10808;48.010;11.326;2024-01-15T08:27:20;11.98;;;6.88;;
21297;SDS011;10808;48.010;11.326;2024-01-15T08:29:46;12.23;;;7.50;;
21297;SDS011;10808;48.010;11.326;2024-01-15T08:32:12;12.65;;;6.82;;
21297;SDS011;10808;48.010;11.326;2024-01-15T08:34:41;10.18;;;6.45;;
21297;SDS011;10808;48.010;11.326;2024-01-15T08:37:12;11.15;;;6.40;;
21297;SDS011;10808;48.010;11.326;2024-01-15T08:39:38;10.07;;;6.27;;
21297;SDS011;10808;48.010;11.326;2024-01-15T08:42:05;12.18;;;7.07;;
21297;SDS011;10808;48.010;11.326;2024-01-15T08:44:31;10.43;;;6.43;;
21297;SDS011;10808;48.010;11.326;2024-01-15T08:46:57;11.05;;;6.68;;
21297;SDS011;10808;48.010;11.326;2024-01-15T08:49:23;11.13;;;6.63;;
21297;SDS011;10808;48.010;11.326;2024-01-15T08:51:49;10.40;;;6.20;;
21297;SDS011;10808;48.010;11.326;2024-01-15T08:54:15;10.25;;;6.53;;
21297;SDS011;10808;48.010;11.326;2024-01-15T08:56:41;11.77;;;6.63;;
21297;SDS011;10808;48.010;11.326;2024-01-15T08:59:07;11.10;;;6.55;;
21297;SDS011;10808;48.010;11.326;2024-01-15T09:01:33;10.88;;;6.35;;
21297;SDS011;10808;48.010;11.326;2024-01-15T09:04:02;10.27;;;6.28;;
21297;SDS011;10808;48.010;11.326;2024-01-15T09:06:28;10.57;;;5.72;;
21297;SDS011;10808;48.010;11.326;2024-01-15T09:08:55;9.27;;;5.60;;
21297;SDS011;10808;48.010;11.326;2024-01-15T09:11:21;9.35;;;5.70;;
21297;SDS011;10808;48.010;11.326;2024-01-15T09:13:47;8.23;;;5.32;;
21297;SDS011;10808;48.010;11.326;2024-01-15T09:16:13;8.00;;;5.13;;
21297;SDS011;10808;48.010;11.326;2024-01-15T09:18:39;8.40;;;5.00;;
21297;SDS011;10808;48.010;11.326;2024-01-15T09:21:05;8.18;;;5.28;;
21297;SDS011;10808;48.010;11.326;2024-01-15T09:23:32;7.60;;;5.10;;
21297;SDS011;10808;48.010;11.326;2024-01-15T09:25:58;8.85;;;4.93;;
21297;SDS011;10808;48.010;11.326;2024-01-15T09:28:24;9.90;;;5.05;;
21297;SDS011;10808;48.010;11.326;2024-01-15T09:30:50;8.25;;;4.50;;
21297;SDS011;10808;48.010;11.326;2024-01-15T09:33:16;7.43;;;4.40;;
21297;SDS011;10808;48.010;11.326;2024-01-15T09:35:42;7.37;;;4.60;;
21297;SDS011;10808;48.010;11.326;2024-01-15T09:38:08;6.90;;;4.28;;
21297;SDS011;10808;48.010;11.326;2024-01-15T09:40:34;7.30;;;4.50;;
21297;SDS011;10808;48.010;11.326;2024-01-15T09:43:03;7.15;;;4.30;;
21297;SDS011;10808;48.010;11.326;2024-01-15T09:45:30;7.45;;;4.03;;
21297;SDS011;10808;48.010;11.326;2024-01-15T09:47:56;7.93;;;5.00;;
21297;SDS011;10808;48.010;11.326;2024-01-15T09:50:22;7.88;;;4.22;;
21297;SDS011;10808;48.010;11.326;2024-01-15T09:52:48;8.32;;;4.60;;
21297;SDS011;10808;48.010;11.326;2024-01-15T09:55:15;8.32;;;4.72;;
21297;SDS011;10808;48.010;11.326;2024-01-15T09:57:43;6.63;;;4.18;;
21297;SDS011;10808;48.010;11.326;2024-01-15T10:00:11;6.38;;;4.00;;
21297;SDS011;10808;48.010;11.326;2024-01-15T10:02:41;7.32;;;4.50;;
21297;SDS011;10808;48.010;11.326;2024-01-15T10:05:07;7.13;;;4.10;;
21297;SDS011;10808;48.010;11.326;2024-01-15T10:07:35;7.57;;;5.00;;
21297;SDS011;10808;48.010;11.326;2024-01-15T10:10:02;7.20;;;4.88;;
21297;SDS011;10808;48.010;11.326;2024-01-15T10:12:29;6.53;;;4.20;;
21297;SDS011;10808;48.010;11.326;2024-01-15T10:14:58;6.82;;;4.40;;
21297;SDS011;10808;48.010;11.326;2024-01-15T10:17:26;6.20;;;4.00;;
21297;SDS011;10808;48.010;11.326;2024-01-15T10:19:56;6.60;;;4.37;;
21297;SDS011;10808;48.010;11.326;2024-01-15T10:22:22;6.63;;;3.97;;
21297;SDS011;10808;48.010;11.326;2024-01-15T10:24:48;8.02;;;4.47;;
21297;SDS011;10808;48.010;11.326;2024-01-15T10:27:15;7.72;;;3.90;;
21297;SDS011;10808;48.010;11.326;2024-01-15T10:29:42;7.25;;;3.90;;
21297;SDS011;10808;48.010;11.326;2024-01-15T10:32:08;8.30;;;4.20;;
21297;SDS011;10808;48.010;11.326;2024-01-15T10:34:37;6.97;;;4.28;;
21297;SDS011;10808;48.010;11.326;2024-01-15T10:37:06;5.90;;;4.05;;
21297;SDS011;10808;48.010;11.326;2024-01-15T10:39:33;7.75;;;4.05;;
21297;SDS011;10808;48.010;11.326;2024-01-15T10:42:00;5.55;;;3.58;;
21297;SDS011;10808;48.010;11.326;2024-01-15T10:44:26;6.77;;;3.63;;
21297;SDS011;10808;48.010;11.326;2024-01-15T10:46:52;5.63;;;3.42;;
21297;SDS011;10808;48.010;11.326;2024-01-15T10:49:20;5.60;;;3.55;;
21297;SDS011;10808;48.010;11.326;2024-01-15T10:51:47;4.97;;;3.30;;
21297;SDS011;10808;48.010;11.326;2024-01-15T10:54:14;5.28;;;3.42;;
21297;SDS011;10808;48.010;11.326;2024-01-15T10:56:41;7.25;;;4.07;;
21297;SDS011;10808;48.010;11.326;2024-01-15T10:59:08;6.68;;;3.60;;
21297;SDS011;10808;48.010;11.326;2024-01-15T11:01:43;6.10;;;3.47;;
21297;SDS011;10808;48.010;11.326;2024-01-15T11:04:10;5.53;;;3.10;;
21297;SDS011;10808;48.010;11.326;2024-01-15T11:06:43;4.25;;;3.03;;
21297;SDS011;10808;48.010;11.326;2024-01-15T11:09:11;5.35;;;2.88;;
21297;SDS011;10808;48.010;11.326;2024-01-15T11:11:44;4.45;;;3.00;;
21297;SDS011;10808;48.010;11.326;2024-01-15T11:15:00;4.78;;;3.20;;
21297;SDS011;10808;48.010;11.326;2024-01-15T11:17:04;5.88;;;3.47;;
21297;SDS011;10808;48.010;11.326;2024-01-15T11:19:46;4.68;;;2.70;;
21297;SDS011;10808;48.010;11.326;2024-01-15T11:25:01;4.55;;;2.88;;
21297;SDS011;10808;48.010;11.326;2024-01-15T11:30:13;3.92;;;2.53;;
21297;SDS011;10808;48.010;11.326;2024-01-15T11:32:39;4.22;;;2.97;;
21297;SDS011;10808;48.010;11.326;2024-01-15T11:35:09;4.40;;;2.72;;
21297;SDS011;10808;48.010;11.326;2024-01-15T11:40:17;3.90;;;2.60;;
21297;SDS011;10808;48.010;11.326;2024-01-15T11:42:44;3.78;;;2.35;;
21297;SDS011;10808;48.010;11.326;2024-01-15T11:45:12;4.30;;;2.50;;
21297;SDS011;10808;48.010;11.326;2024-01-15T11:50:32;4.07;;;2.90;;
21297;SDS011;10808;48.010;11.326;2024-01-15T11:53:03;4.85;;;3.35;;
21297;SDS011;10808;48.010;11.326;2024-01-15T11:55:41;4.45;;;3.13;;
21297;SDS011;10808;48.010;11.326;2024-01-15T11:58:10;3.47;;;2.40;;
21297;SDS011;10808;48.010;11.326;2024-01-15T12:00:43;5.45;;;2.60;;
21297;SDS011;10808;48.010;11.326;2024-01-15T12:03:13;3.78;;;2.55;;
21297;SDS011;10808;48.010;11.326;2024-01-15T12:05:39;3.58;;;2.58;;
21297;SDS011;10808;48.010;11.326;2024-01-15T12:08:05;3.33;;;2.50;;
21297;SDS011;10808;48.010;11.326;2024-01-15T12:10:38;4.07;;;2.70;;
21297;SDS011;10808;48.010;11.326;2024-01-15T12:13:11;4.88;;;2.70;;
21297;SDS011;10808;48.010;11.326;2024-01-15T12:15:38;3.90;;;2.70;;
21297;SDS011;10808;48.010;11.326;2024-01-15T12:18:09;3.63;;;2.60;;
21297;SDS011;10808;48.010;11.326;2024-01-15T12:20:37;4.07;;;2.83;;
21297;SDS011;10808;48.010;11.326;2024-01-15T12:23:03;4.78;;;2.67;;
21297;SDS011;10808;48.010;11.326;2024-01-15T12:25:30;4.47;;;2.90;;
21297;SDS011;10808;48.010;11.326;2024-01-15T12:28:00;5.20;;;3.20;;
21297;SDS011;10808;48.010;11.326;2024-01-15T12:30:27;5.30;;;3.20;;
21297;SDS011;10808;48.010;11.326;2024-01-15T12:32:55;4.72;;;2.90;;
21297;SDS011;10808;48.010;11.326;2024-01-15T12:35:24;5.78;;;3.50;;
21297;SDS011;10808;48.010;11.326;2024-01-15T12:37:52;5.30;;;3.50;;
21297;SDS011;10808;48.010;11.326;2024-01-15T12:40:19;5.72;;;3.47;;
21297;SDS011;10808;48.010;11.326;2024-01-15T12:42:49;6.60;;;3.72;;
21297;SDS011;10808;48.010;11.326;2024-01-15T12:45:15;5.73;;;3.70;;
21297;SDS011;10808;48.010;11.326;2024-01-15T12:47:43;6.35;;;4.13;;
21297;SDS011;10808;48.010;11.326;2024-01-15T12:50:09;6.33;;;3.90;;
21297;SDS011;10808;48.010;11.326;2024-01-15T12:52:37;5.75;;;3.70;;
21297;SDS011;10808;48.010;11.326;2024-01-15T12:55:06;6.22;;;3.90;;
21297;SDS011;10808;48.010;11.326;2024-01-15T12:57:51;6.57;;;4.00;;
21297;SDS011;10808;48.010;11.326;2024-01-15T13:00:21;5.93;;;4.07;;
21297;SDS011;10808;48.010;11.326;2024-01-15T13:02:49;6.82;;;4.57;;
21297;SDS011;10808;48.010;11.326;2024-01-15T13:05:15;6.28;;;4.00;;
21297;SDS011;10808;48.010;11.326;2024-01-15T13:07:52;7.05;;;4.28;;
21297;SDS011;10808;48.010;11.326;2024-01-15T13:10:26;8.48;;;5.00;;
21297;SDS011;10808;48.010;11.326;2024-01-15T13:13:08;6.35;;;4.10;;
21297;SDS011;10808;48.010;11.326;2024-01-15T13:15:35;7.28;;;4.38;;
21297;SDS011;10808;48.010;11.326;2024-01-15T13:20:49;7.53;;;4.80;;
21297;SDS011;10808;48.010;11.326;2024-01-15T13:23:24;6.38;;;4.20;;
21297;SDS011;10808;48.010;11.326;2024-01-15T13:25:50;8.07;;;4.60;;
21297;SDS011;10808;48.010;11.326;2024-01-15T13:28:16;6.55;;;3.95;;
21297;SDS011;10808;48.010;11.326;2024-01-15T13:30:59;7.47;;;4.47;;
21297;SDS011;10808;48.010;11.326;2024-01-15T13:33:26;7.93;;;4.50;;
21297;SDS011;10808;48.010;11.326;2024-01-15T13:35:52;5.53;;;3.97;;
21297;SDS011;10808;48.010;11.326;2024-01-15T13:38:18;7.55;;;5.38;;
21297;SDS011;10808;48.010;11.326;2024-01-15T13:40:54;6.05;;;3.92;;
21297;SDS011;10808;48.010;11.326;2024-01-15T13:43:20;5.85;;;3.67;;
21297;SDS011;10808;48.010;11.326;2024-01-15T13:45:47;5.63;;;3.85;;
21297;SDS011;10808;48.010;11.326;2024-01-15T13:48:13;5.25;;;3.58;;
21297;SDS011;10808;48.010;11.326;2024-01-15T13:50:39;5.20;;;3.75;;
21297;SDS011;10808;48.010;11.326;2024-01-15T13:53:05;7.45;;;4.72;;
21297;SDS011;10808;48.010;11.326;2024-01-15T13:55:31;9.57;;;5.70;;
21297;SDS011;10808;48.010;11.326;2024-01-15T13:57:57;24.20;;;11.63;;
21297;SDS011;10808;48.010;11.326;2024-01-15T14:00:23;15.82;;;8.85;;
21297;SDS011;10808;48.010;11.326;2024-01-15T14:02:50;15.10;;;10.15;;
21297;SDS011;10808;48.010;11.326;2024-01-15T14:05:23;8.07;;;5.25;;
21297;SDS011;10808;48.010;11.326;2024-01-15T14:07:49;7.32;;;4.47;;
21297;SDS011;10808;48.010;11.326;2024-01-15T14:10:15;5.55;;;3.35;;
21297;SDS011;10808;48.010;11.326;2024-01-15T14:12:41;5.25;;;3.20;;
21297;SDS011;10808;48.010;11.326;2024-01-15T14:15:09;4.82;;;3.47;;
21297;SDS011;10808;48.010;11.326;2024-01-15T14:17:44;3.97;;;3.05;;
21297;SDS011;10808;48.010;11.326;2024-01-15T14:20:11;6.43;;;4.32;;
21297;SDS011;10808;48.010;11.326;2024-01-15T14:22:38;8.43;;;5.43;;
21297;SDS011;10808;48.010;11.326;2024-01-15T14:25:05;9.02;;;5.28;;
21297;SDS011;10808;48.010;11.326;2024-01-15T14:27:35;8.70;;;5.50;;
21297;SDS011;10808;48.010;11.326;2024-01-15T14:30:02;7.18;;;4.75;;
21297;SDS011;10808;48.010;11.326;2024-01-15T14:32:29;4.45;;;3.10;;
21297;SDS011;10808;48.010;11.326;2024-01-15T14:34:55;3.67;;;2.75;;
21297;SDS011;10808;48.010;11.326;2024-01-15T14:37:28;3.67;;;2.73;;
21297;SDS011;10808;48.010;11.326;2024-01-15T14:39:58;3.40;;;2.70;;
21297;SDS011;10808;48.010;11.326;2024-01-15T14:42:27;5.15;;;3.00;;